Time,TemperatureF,DewpointF,PressureIn,WindDirection,WindDirectionDegrees,WindSpeedMPH,WindSpeedGustMPH,Humidity,HourlyPrecipIn,Conditions,Clouds,dailyrainin,SolarRadiationWatts/m^2,SoftwareType,DateUTC
2013-01-28 00:02:00,32.0,31.0,-100.00,SSW,200,7.0,24.0,97,0.01,,,0.78,0.000000,,2013-01-28 07:02:00,
2013-01-28 00:22:00,33.0,32.0,-100.00,ESE,109,5.0,22.0,98,0.00,,,0.74,0.000000,,2013-01-28 07:22:00,
2013-01-28 00:32:00,33.0,32.0,-100.00,ESE,109,5.0,22.0,98,0.00,,,0.74,0.000000,,2013-01-28 07:32:00,
2013-01-28 00:42:00,33.0,32.0,-100.00,ESE,109,5.0,22.0,98,0.00,,,0.74,0.000000,,2013-01-28 07:42:00,
2013-01-28 00:52:00,33.0,32.0,-100.00,ESE,109,5.0,22.0,98,0.00,,,0.74,0.000000,,2013-01-28 07:52:00,
2013-01-28 01:01:00,33.0,32.0,-100.00,ESE,109,5.0,22.0,98,0.00,,,0.74,0.000000,,2013-01-28 08:01:00,
2013-01-28 01:32:00,33.0,32.0,-100.00,ESE,121,3.0,13.0,98,0.00,,,0.71,0.000000,,2013-01-28 08:32:00,
2013-01-28 01:42:00,33.0,32.0,-100.00,ESE,121,3.0,13.0,98,0.00,,,0.71,0.000000,,2013-01-28 08:42:00,
2013-01-28 01:52:00,33.0,32.0,-100.00,ESE,121,3.0,13.0,98,0.00,,,0.71,0.000000,,2013-01-28 08:52:00,
2013-01-28 02:01:00,33.0,32.0,-100.00,ESE,121,3.0,13.0,98,0.00,,,0.71,0.000000,,2013-01-28 09:01:00,
2013-01-28 02:32:00,33.0,32.0,-100.00,South,185,6.0,13.0,98,0.00,,,0.67,0.000000,,2013-01-28 09:32:00,
2013-01-28 02:42:00,33.0,32.0,-100.00,South,185,6.0,13.0,98,0.00,,,0.67,0.000000,,2013-01-28 09:42:00,
2013-01-28 02:52:00,33.0,32.0,-100.00,South,185,6.0,13.0,98,0.00,,,0.67,0.000000,,2013-01-28 09:52:00,
2013-01-28 03:01:00,33.0,32.0,-100.00,South,185,6.0,13.0,98,0.00,,,0.67,0.000000,,2013-01-28 10:01:00,
2013-01-28 03:32:00,33.0,32.0,-100.00,SSW,206,8.0,14.0,98,0.00,,,0.59,0.000000,,2013-01-28 10:32:00,
2013-01-28 03:42:00,33.0,32.0,-100.00,SSW,206,8.0,14.0,98,0.00,,,0.59,0.000000,,2013-01-28 10:42:00,
2013-01-28 03:52:00,33.0,32.0,-100.00,SSW,206,8.0,14.0,98,0.00,,,0.59,0.000000,,2013-01-28 10:52:00,
2013-01-28 04:01:00,33.0,32.0,-100.00,SSW,206,8.0,14.0,98,0.00,,,0.59,0.000000,,2013-01-28 11:01:00,
2013-01-28 04:03:00,33.0,32.0,-100.00,SSW,193,7.0,21.0,98,0.00,,,0.55,0.000000,,2013-01-28 11:03:00,
2013-01-28 04:32:00,33.0,32.0,-100.00,SSW,193,7.0,21.0,98,0.00,,,0.55,0.000000,,2013-01-28 11:32:00,
2013-01-28 04:42:00,33.0,32.0,-100.00,SSW,193,7.0,21.0,98,0.00,,,0.55,0.000000,,2013-01-28 11:42:00,
2013-01-28 04:52:00,33.0,32.0,-100.00,SSW,193,7.0,21.0,98,0.00,,,0.55,0.000000,,2013-01-28 11:52:00,
2013-01-28 05:23:00,32.0,32.0,-100.00,WNW,298,7.0,22.0,98,0.00,,,0.50,0.000000,,2013-01-28 12:23:00,
2013-01-28 05:33:00,32.0,32.0,-100.00,WNW,298,7.0,22.0,98,0.00,,,0.50,0.000000,,2013-01-28 12:33:00,
2013-01-28 05:42:00,32.0,32.0,-100.00,WNW,298,7.0,22.0,98,0.00,,,0.50,0.000000,,2013-01-28 12:42:00,
2013-01-28 05:52:00,32.0,32.0,-100.00,WNW,298,7.0,22.0,98,0.00,,,0.50,0.000000,,2013-01-28 12:52:00,
2013-01-28 06:02:00,32.0,32.0,-100.00,WNW,298,7.0,22.0,98,0.00,,,0.50,0.000000,,2013-01-28 13:02:00,
2013-01-28 06:23:00,31.0,31.0,-100.00,SSW,198,8.0,22.0,98,0.00,,,0.45,0.000000,,2013-01-28 13:23:00,
2013-01-28 06:33:00,31.0,31.0,-100.00,SSW,198,8.0,22.0,98,0.00,,,0.45,0.000000,,2013-01-28 13:33:00,
2013-01-28 06:42:00,31.0,31.0,-100.00,SSW,198,8.0,22.0,98,0.00,,,0.45,0.000000,,2013-01-28 13:42:00,
2013-01-28 06:52:00,31.0,31.0,-100.00,SSW,198,8.0,22.0,98,0.00,,,0.45,0.000000,,2013-01-28 13:52:00,
2013-01-28 07:02:00,31.0,31.0,-100.00,SSW,198,8.0,22.0,98,0.00,,,0.45,0.000000,,2013-01-28 14:02:00,
2013-01-28 07:33:00,31.0,31.0,-100.00,North,11,4.0,21.0,98,0.00,,,0.42,0.000000,,2013-01-28 14:33:00,
2013-01-28 07:43:00,31.0,31.0,-100.00,North,11,4.0,21.0,98,0.00,,,0.42,0.000000,,2013-01-28 14:43:00,
2013-01-28 07:53:00,31.0,31.0,-100.00,North,11,4.0,21.0,98,0.00,,,0.42,0.000000,,2013-01-28 14:53:00,
2013-01-28 08:02:00,31.0,31.0,-100.00,North,11,4.0,21.0,98,0.00,,,0.42,0.000000,,2013-01-28 15:02:00,
2013-01-28 08:03:00,31.0,31.0,-100.00,West,274,6.0,17.0,98,0.00,,,0.40,1.000000,,2013-01-28 15:03:00,
2013-01-28 08:33:00,31.0,31.0,-100.00,West,274,6.0,17.0,98,0.00,,,0.40,1.000000,,2013-01-28 15:33:00,
2013-01-28 08:43:00,31.0,31.0,-100.00,West,274,6.0,17.0,98,0.00,,,0.40,1.000000,,2013-01-28 15:43:00,
2013-01-28 08:53:00,31.0,31.0,-100.00,West,274,6.0,17.0,98,0.00,,,0.40,1.000000,,2013-01-28 15:53:00,
2013-01-28 09:33:00,28.0,27.0,-100.00,SSW,198,5.0,16.0,97,0.00,,,0.40,12.000000,,2013-01-28 16:33:00,
2013-01-28 09:43:00,28.0,27.0,-100.00,SSW,198,5.0,16.0,97,0.00,,,0.40,12.000000,,2013-01-28 16:43:00,
2013-01-28 09:53:00,28.0,27.0,-100.00,SSW,198,5.0,16.0,97,0.00,,,0.40,12.000000,,2013-01-28 16:53:00,
2013-01-28 10:01:00,28.0,27.0,-100.00,SSW,198,5.0,16.0,97,0.00,,,0.40,12.000000,,2013-01-28 17:01:00,
2013-01-28 10:33:00,28.0,27.0,-100.00,SSE,155,7.0,19.0,96,0.00,,,0.35,25.000000,,2013-01-28 17:33:00,
2013-01-28 10:42:00,28.0,27.0,-100.00,SSE,155,7.0,19.0,96,0.00,,,0.35,25.000000,,2013-01-28 17:42:00,
2013-01-28 10:52:00,28.0,27.0,-100.00,SSE,155,7.0,19.0,96,0.00,,,0.35,25.000000,,2013-01-28 17:52:00,
2013-01-28 11:01:00,28.0,27.0,-100.00,SSE,155,7.0,19.0,96,0.00,,,0.35,25.000000,,2013-01-28 18:01:00,
2013-01-28 11:23:00,29.0,27.0,-100.00,West,268,4.0,18.0,94,0.00,,,0.32,84.000000,,2013-01-28 18:23:00,
2013-01-28 11:33:00,29.0,27.0,-100.00,West,268,4.0,18.0,94,0.00,,,0.32,84.000000,,2013-01-28 18:33:00,
2013-01-28 11:42:00,29.0,27.0,-100.00,West,268,4.0,18.0,94,0.00,,,0.32,84.000000,,2013-01-28 18:42:00,
2013-01-28 11:52:00,29.0,27.0,-100.00,West,268,4.0,18.0,94,0.00,,,0.32,84.000000,,2013-01-28 18:52:00,
2013-01-28 12:01:00,29.0,27.0,-100.00,West,268,4.0,18.0,94,0.00,,,0.32,84.000000,,2013-01-28 19:01:00,
2013-01-28 12:33:00,31.0,28.0,-100.00,South,188,9.0,17.0,88,0.00,,,0.31,121.000000,,2013-01-28 19:33:00,
2013-01-28 12:42:00,31.0,28.0,-100.00,South,188,9.0,17.0,88,0.00,,,0.31,121.000000,,2013-01-28 19:42:00,
2013-01-28 12:52:00,31.0,28.0,-100.00,South,188,9.0,17.0,88,0.00,,,0.31,121.000000,,2013-01-28 19:52:00,
2013-01-28 13:02:00,31.0,28.0,-100.00,South,188,9.0,17.0,88,0.00,,,0.31,121.000000,,2013-01-28 20:02:00,
2013-01-28 13:33:00,32.0,27.0,-100.00,ESE,117,10.0,18.0,83,0.00,,,0.30,158.000000,,2013-01-28 20:33:00,
2013-01-28 13:43:00,32.0,27.0,-100.00,ESE,117,10.0,18.0,83,0.00,,,0.30,158.000000,,2013-01-28 20:43:00,
2013-01-28 13:52:00,32.0,27.0,-100.00,ESE,117,10.0,18.0,83,0.00,,,0.30,158.000000,,2013-01-28 20:52:00,
2013-01-28 14:02:00,32.0,27.0,-100.00,ESE,117,10.0,18.0,83,0.00,,,0.30,158.000000,,2013-01-28 21:02:00,
2013-01-28 14:33:00,31.0,28.0,-100.00,SSW,201,7.0,21.0,87,0.00,,,0.30,125.000000,,2013-01-28 21:33:00,
2013-01-28 14:43:00,31.0,28.0,-100.00,SSW,201,7.0,21.0,87,0.00,,,0.30,125.000000,,2013-01-28 21:43:00,
2013-01-28 14:52:00,31.0,28.0,-100.00,SSW,201,7.0,21.0,87,0.00,,,0.30,125.000000,,2013-01-28 21:52:00,
2013-01-28 15:01:00,31.0,28.0,-100.00,SSW,201,7.0,21.0,87,0.00,,,0.30,125.000000,,2013-01-28 22:01:00,
2013-01-28 15:23:00,27.0,24.0,-100.00,South,187,7.0,20.0,88,0.00,,,0.26,85.000000,,2013-01-28 22:23:00,
2013-01-28 15:33:00,27.0,24.0,-100.00,South,187,7.0,20.0,88,0.00,,,0.26,85.000000,,2013-01-28 22:33:00,
2013-01-28 15:42:00,27.0,24.0,-100.00,South,187,7.0,20.0,88,0.00,,,0.26,85.000000,,2013-01-28 22:42:00,
2013-01-28 15:52:00,27.0,24.0,-100.00,South,187,7.0,20.0,88,0.00,,,0.26,85.000000,,2013-01-28 22:52:00,
2013-01-28 16:01:00,27.0,24.0,-100.00,South,187,7.0,20.0,88,0.00,,,0.26,85.000000,,2013-01-28 23:01:00,
2013-01-28 16:33:00,25.0,23.0,-100.00,West,270,4.0,16.0,93,0.00,,,0.10,47.000000,,2013-01-28 23:33:00,
2013-01-28 16:42:00,25.0,23.0,-100.00,West,270,4.0,16.0,93,0.00,,,0.10,47.000000,,2013-01-28 23:42:00,
2013-01-28 16:53:00,25.0,23.0,-100.00,West,270,4.0,16.0,93,0.00,,,0.10,47.000000,,2013-01-28 23:53:00,
2013-01-28 17:02:00,25.0,23.0,-100.00,West,270,4.0,16.0,93,0.00,,,0.10,47.000000,,2013-01-29 00:02:00,
2013-01-28 17:33:00,26.0,24.0,-100.00,WSW,256,5.0,18.0,91,0.00,,,0.02,42.000000,,2013-01-29 00:33:00,
2013-01-28 17:42:00,26.0,24.0,-100.00,WSW,256,5.0,18.0,91,0.00,,,0.02,42.000000,,2013-01-29 00:42:00,
2013-01-28 17:52:00,26.0,24.0,-100.00,WSW,256,5.0,18.0,91,0.00,,,0.02,42.000000,,2013-01-29 00:52:00,
2013-01-28 18:01:00,26.0,24.0,-100.00,WSW,256,5.0,18.0,91,0.00,,,0.02,42.000000,,2013-01-29 01:01:00,
2013-01-28 18:32:00,24.0,23.0,-100.00,North,6,3.0,14.0,94,0.00,,,0.02,3.000000,,2013-01-29 01:32:00,
2013-01-28 18:42:00,24.0,23.0,-100.00,North,6,3.0,14.0,94,0.00,,,0.02,3.000000,,2013-01-29 01:42:00,
2013-01-28 18:52:00,24.0,23.0,-100.00,North,6,3.0,14.0,94,0.00,,,0.02,3.000000,,2013-01-29 01:52:00,
2013-01-28 19:01:00,24.0,23.0,-100.00,North,6,3.0,14.0,94,0.00,,,0.02,3.000000,,2013-01-29 02:01:00,
2013-01-28 19:33:00,24.0,23.0,-100.00,NNW,339,1.0,14.0,94,0.00,,,0.02,0.000000,,2013-01-29 02:33:00,
2013-01-28 19:42:00,24.0,23.0,-100.00,NNW,339,1.0,14.0,94,0.00,,,0.02,0.000000,,2013-01-29 02:42:00,
2013-01-28 19:53:00,24.0,23.0,-100.00,NNW,339,1.0,14.0,94,0.00,,,0.02,0.000000,,2013-01-29 02:53:00,
2013-01-28 20:02:00,24.0,23.0,-100.00,NNW,339,1.0,14.0,94,0.00,,,0.02,0.000000,,2013-01-29 03:02:00,
2013-01-28 20:22:00,23.0,21.0,-100.00,WSW,239,1.0,10.0,93,0.00,,,-99.99,0.000000,,2013-01-29 03:22:00,
2013-01-28 20:32:00,23.0,21.0,-100.00,WSW,239,1.0,10.0,93,0.00,,,-99.99,0.000000,,2013-01-29 03:32:00,
2013-01-28 20:42:00,23.0,21.0,-100.00,WSW,239,1.0,10.0,93,0.00,,,-99.99,0.000000,,2013-01-29 03:42:00,
2013-01-28 20:53:00,23.0,21.0,-100.00,WSW,239,1.0,10.0,93,0.00,,,-99.99,0.000000,,2013-01-29 03:53:00,
2013-01-28 21:01:00,23.0,21.0,-100.00,WSW,239,1.0,10.0,93,0.00,,,-99.99,0.000000,,2013-01-29 04:01:00,
2013-01-28 21:03:00,22.0,20.0,-100.00,East,82,2.0,8.0,92,0.00,,,0.01,0.000000,,2013-01-29 04:03:00,
2013-01-28 21:32:00,22.0,20.0,-100.00,East,82,2.0,8.0,92,0.00,,,0.01,0.000000,,2013-01-29 04:32:00,
2013-01-28 21:42:00,22.0,20.0,-100.00,East,82,2.0,8.0,92,0.00,,,0.01,0.000000,,2013-01-29 04:42:00,
2013-01-28 21:52:00,22.0,20.0,-100.00,East,82,2.0,8.0,92,0.00,,,0.01,0.000000,,2013-01-29 04:52:00,
2013-01-28 22:32:00,20.0,18.0,-100.00,ENE,64,0.0,9.0,91,0.00,,,0.01,0.000000,,2013-01-29 05:32:00,
2013-01-28 22:42:00,20.0,18.0,-100.00,ENE,64,0.0,9.0,91,0.00,,,0.01,0.000000,,2013-01-29 05:42:00,
2013-01-28 22:52:00,20.0,18.0,-100.00,ENE,64,0.0,9.0,91,0.00,,,0.01,0.000000,,2013-01-29 05:52:00,
2013-01-28 23:01:00,20.0,18.0,-100.00,ENE,64,0.0,9.0,91,0.00,,,0.01,0.000000,,2013-01-29 06:01:00,
2013-01-28 23:32:00,18.0,16.0,-100.00,South,189,0.0,6.0,91,0.00,,,-99.99,0.000000,,2013-01-29 06:32:00,
2013-01-28 23:42:00,18.0,16.0,-100.00,South,189,0.0,6.0,91,0.00,,,-99.99,0.000000,,2013-01-29 06:42:00,
2013-01-28 23:52:00,18.0,16.0,-100.00,South,189,0.0,6.0,91,0.00,,,-99.99,0.000000,,2013-01-29 06:52:00,